sensor_id;sensor_type;location;lat;lon;timestamp;pressure;altitude;pressure_sealevel;temperature;humidity
59757;BME280;45631;51.962;5.974;2023-02-20T00:01:39;102408.19;;;4.14;100.00
59757;BME280;45631;51.962;5.974;2023-02-20T00:04:07;102396.94;;;4.10;100.00
59757;BME280;45631;51.962;5.974;2023-02-20T00:06:35;102398.63;;;4.14;100.00
59757;BME280;45631;51.962;5.974;2023-02-20T00:09:04;102389.13;;;4.13;100.00
59757;BME280;45631;51.962;5.974;2023-02-20T00:11:33;102386.38;;;4.21;100.00
59757;BME280;45631;51.962;5.974;2023-02-20T00:14:01;102375.03;;;4.25;100.00
59757;BME280;45631;51.962;5.974;2023-02-20T00:16:29;102375.84;;;4.30;100.00
59757;BME280;45631;51.962;5.974;2023-02-20T00:18:57;102378.41;;;4.33;100.00
59757;BME280;45631;51.962;5.974;2023-02-20T00:21:27;102373.22;;;4.32;100.00
59757;BME280;45631;51.962;5.974;2023-02-20T00:23:55;102361.13;;;4.28;100.00
59757;BME280;45631;51.962;5.974;2023-02-20T00:26:25;102359.41;;;4.28;100.00
59757;BME280;45631;51.962;5.974;2023-02-20T00:28:53;102353.25;;;4.31;100.00
59757;BME280;45631;51.962;5.974;2023-02-20T00:31:21;102358.47;;;4.31;100.00
59757;BME280;45631;51.962;5.974;2023-02-20T00:33:50;102350.66;;;4.32;100.00
59757;BME280;45631;51.962;5.974;2023-02-20T00:36:18;102349.66;;;4.39;100.00
59757;BME280;45631;51.962;5.974;2023-02-20T00:38:46;102345.38;;;4.37;100.00
59757;BME280;45631;51.962;5.974;2023-02-20T00:41:18;102332.28;;;4.40;100.00
59757;BME280;45631;51.962;5.974;2023-02-20T00:43:49;102340.97;;;4.40;100.00
59757;BME280;45631;51.962;5.974;2023-02-20T00:46:17;102334.03;;;4.39;100.00
59757;BME280;45631;51.962;5.974;2023-02-20T00:48:45;102337.47;;;4.42;100.00
59757;BME280;45631;51.962;5.974;2023-02-20T00:51:15;102331.41;;;4.41;100.00
59757;BME280;45631;51.962;5.974;2023-02-20T00:53:43;102322.75;;;4.40;100.00
59757;BME280;45631;51.962;5.974;2023-02-20T00:56:11;102314.81;;;4.47;100.00
59757;BME280;45631;51.962;5.974;2023-02-20T00:58:40;102322.56;;;4.51;100.00
59757;BME280;45631;51.962;5.974;2023-02-20T01:01:09;102324.31;;;4.49;100.00
59757;BME280;45631;51.962;5.974;2023-02-20T01:03:37;102309.53;;;4.50;100.00
59757;BME280;45631;51.962;5.974;2023-02-20T01:06:06;102313.91;;;4.49;100.00
59757;BME280;45631;51.962;5.974;2023-02-20T01:08:35;102300.88;;;4.49;100.00
59757;BME280;45631;51.962;5.974;2023-02-20T01:11:04;102296.44;;;4.56;100.00
59757;BME280;45631;51.962;5.974;2023-02-20T01:13:32;102288.69;;;4.50;100.00
59757;BME280;45631;51.962;5.974;2023-02-20T01:16:00;102304.28;;;4.54;100.00
59757;BME280;45631;51.962;5.974;2023-02-20T01:18:30;102293.88;;;4.53;100.00
59757;BME280;45631;51.962;5.974;2023-02-20T01:20:58;102296.47;;;4.53;100.00
59757;BME280;45631;51.962;5.974;2023-02-20T01:23:26;102282.56;;;4.52;100.00
59757;BME280;45631;51.962;5.974;2023-02-20T01:25:54;102287.75;;;4.55;100.00
59757;BME280;45631;51.962;5.974;2023-02-20T01:28:22;102286.09;;;4.51;100.00
59757;BME280;45631;51.962;5.974;2023-02-20T01:30:51;102269.59;;;4.49;100.00
59757;BME280;45631;51.962;5.974;2023-02-20T01:33:19;102263.53;;;4.50;100.00
59757;BME280;45631;51.962;5.974;2023-02-20T01:35:48;102247.94;;;4.46;100.00
59757;BME280;45631;51.962;5.974;2023-02-20T01:38:16;102240.19;;;4.43;100.00
59757;BME280;45631;51.962;5.974;2023-02-20T01:40:46;102241.06;;;4.42;100.00
59757;BME280;45631;51.962;5.974;2023-02-20T01:43:15;102233.28;;;4.40;100.00
59757;BME280;45631;51.962;5.974;2023-02-20T01:45:43;102238.50;;;4.40;100.00
59757;BME280;45631;51.962;5.974;2023-02-20T01:48:19;102230.66;;;4.42;100.00
59757;BME280;45631;51.962;5.974;2023-02-20T01:50:51;102225.44;;;4.42;100.00
59757;BME280;45631;51.962;5.974;2023-02-20T01:53:22;102220.25;;;4.40;100.00
59757;BME280;45631;51.962;5.974;2023-02-20T01:55:54;102214.97;;;4.46;100.00
59757;BME280;45631;51.962;5.974;2023-02-20T01:58:24;102223.69;;;4.44;100.00
59757;BME280;45631;51.962;5.974;2023-02-20T02:00:56;102219.41;;;4.39;100.00
59757;BME280;45631;51.962;5.974;2023-02-20T02:03:28;102231.59;;;4.37;100.00
59757;BME280;45631;51.962;5.974;2023-02-20T02:06:01;102227.25;;;4.38;100.00
59757;BME280;45631;51.962;5.974;2023-02-20T02:08:30;102223.03;;;4.32;100.00
59757;BME280;45631;51.962;5.974;2023-02-20T02:11:02;102214.28;;;4.33;100.00
59757;BME280;45631;51.962;5.974;2023-02-20T02:13:31;102213.38;;;4.36;100.00
59757;BME280;45631;51.962;5.974;2023-02-20T02:16:07;102217.75;;;4.35;100.00
59757;BME280;45631;51.962;5.974;2023-02-20T02:18:51;102208.22;;;4.34;100.00
59757;BME280;45631;51.962;5.974;2023-02-20T02:25:04;102204.78;;;4.31;100.00
59757;BME280;45631;51.962;5.974;2023-02-20T02:31:10;102186.59;;;4.29;100.00
59757;BME280;45631;51.962;5.974;2023-02-20T02:34:03;102187.50;;;4.27;100.00
59757;BME280;45631;51.962;5.974;2023-02-20T02:36:52;102188.41;;;4.26;100.00
59757;BME280;45631;51.962;5.974;2023-02-20T02:39:31;102177.09;;;4.25;100.00
59757;BME280;45631;51.962;5.974;2023-02-20T02:42:06;102179.69;;;4.28;100.00
59757;BME280;45631;51.962;5.974;2023-02-20T02:44:42;102183.94;;;4.32;100.00
59757;BME280;45631;51.962;5.974;2023-02-20T02:47:15;102184.78;;;4.33;100.00
59757;BME280;45631;51.962;5.974;2023-02-20T02:49:50;102180.41;;;4.36;100.00
59757;BME280;45631;51.962;5.974;2023-02-20T02:52:25;102189.06;;;4.37;100.00
59757;BME280;45631;51.962;5.974;2023-02-20T02:55:14;102182.06;;;4.39;100.00
59757;BME280;45631;51.962;5.974;2023-02-20T02:57:42;102170.56;;;4.51;100.00
59757;BME280;45631;51.962;5.974;2023-02-20T03:00:13;102164.50;;;4.50;100.00
59757;BME280;45631;51.962;5.974;2023-02-20T03:02:48;102168.78;;;4.54;100.00
59757;BME280;45631;51.962;5.974;2023-02-20T03:05:19;102154.84;;;4.57;100.00
59757;BME280;45631;51.962;5.974;2023-02-20T03:07:52;102161.81;;;4.55;100.00
59757;BME280;45631;51.962;5.974;2023-02-20T03:10:23;102153.97;;;4.56;100.00
59757;BME280;45631;51.962;5.974;2023-02-20T03:13:01;102148.75;;;4.56;100.00
59757;BME280;45631;51.962;5.974;2023-02-20T03:15:34;102155.50;;;4.67;100.00
59757;BME280;45631;51.962;5.974;2023-02-20T03:18:12;102158.16;;;4.65;100.00
59757;BME280;45631;51.962;5.974;2023-02-20T03:20:48;102151.97;;;4.71;100.00
59757;BME280;45631;51.962;5.974;2023-02-20T03:23:22;102158.84;;;4.73;100.00
59757;BME280;45631;51.962;5.974;2023-02-20T03:25:55;102157.91;;;4.78;100.00
59757;BME280;45631;51.962;5.974;2023-02-20T03:28:29;102156.06;;;4.81;100.00
59757;BME280;45631;51.962;5.974;2023-02-20T03:31:01;102158.81;;;4.75;100.00
59757;BME280;45631;51.962;5.974;2023-02-20T03:33:33;102150.94;;;4.78;100.00
59757;BME280;45631;51.962;5.974;2023-02-20T03:36:24;102143.03;;;4.81;100.00
59757;BME280;45631;51.962;5.974;2023-02-20T03:39:18;102135.22;;;4.83;100.00
59757;BME280;45631;51.962;5.974;2023-02-20T03:42:09;102135.22;;;4.83;100.00
59757;BME280;45631;51.962;5.974;2023-02-20T03:44:58;102126.53;;;4.82;100.00
59757;BME280;45631;51.962;5.974;2023-02-20T03:47:28;102129.09;;;4.85;100.00
59757;BME280;45631;51.962;5.974;2023-02-20T03:49:59;102139.53;;;4.85;100.00
59757;BME280;45631;51.962;5.974;2023-02-20T03:52:28;102133.34;;;4.89;100.00
59757;BME280;45631;51.962;5.974;2023-02-20T03:54:58;102140.22;;;4.92;100.00
59757;BME280;45631;51.962;5.974;2023-02-20T03:57:29;102141.97;;;4.91;100.00
59757;BME280;45631;51.962;5.974;2023-02-20T04:00:02;102132.41;;;4.92;100.00
59757;BME280;45631;51.962;5.974;2023-02-20T04:02:35;102127.19;;;4.92;100.00
59757;BME280;45631;51.962;5.974;2023-02-20T04:05:09;102127.22;;;4.90;100.00
59757;BME280;45631;51.962;5.974;2023-02-20T04:07:42;102131.50;;;4.93;100.00
59757;BME280;45631;51.962;5.974;2023-02-20T04:10:17;102125.28;;;5.00;100.00
59757;BME280;45631;51.962;5.974;2023-02-20T04:12:47;102125.34;;;4.97;100.00
59757;BME280;45631;51.962;5.974;2023-02-20T04:15:18;102121.00;;;4.96;100.00
59757;BME280;45631;51.962;5.974;2023-02-20T04:17:49;102121.78;;;5.01;100.00
59757;BME280;45631;51.962;5.974;2023-02-20T04:20:18;102124.31;;;5.06;100.00
59757;BME280;45631;51.962;5.974;2023-02-20T04:22:48;102123.44;;;5.05;100.00
59757;BME280;45631;51.962;5.974;2023-02-20T04:25:24;102120.81;;;5.05;100.00
59757;BME280;45631;51.962;5.974;2023-02-20T04:28:00;102119.03;;;5.09;100.00
59757;BME280;45631;51.962;5.974;2023-02-20T04:30:28;102112.75;;;5.16;100.00
59757;BME280;45631;51.962;5.974;2023-02-20T04:32:56;102111.00;;;5.18;100.00
59757;BME280;45631;51.962;5.974;2023-02-20T04:35:24;102105.78;;;5.18;100.00
59757;BME280;45631;51.962;5.974;2023-02-20T04:37:53;102105.72;;;5.21;100.00
59757;BME280;45631;51.962;5.974;2023-02-20T04:40:23;102106.47;;;5.27;100.00
59757;BME280;45631;51.962;5.974;2023-02-20T04:42:51;102099.47;;;5.27;100.00
59757;BME280;45631;51.962;5.974;2023-02-20T04:45:22;102092.50;;;5.29;100.00
59757;BME280;45631;51.962;5.974;2023-02-20T04:47:50;102101.09;;;5.33;100.00
59757;BME280;45631;51.962;5.974;2023-02-20T04:50:21;102098.44;;;5.36;100.00
59757;BME280;45631;51.962;5.974;2023-02-20T04:52:51;102100.13;;;5.37;100.00
59757;BME280;45631;51.962;5.974;2023-02-20T04:55:19;102103.56;;;5.39;100.00
59757;BME280;45631;51.962;5.974;2023-02-20T04:57:52;102100.13;;;5.37;100.00
59757;BME280;45631;51.962;5.974;2023-02-20T05:00:22;102102.72;;;5.37;100.00
59757;BME280;45631;51.962;5.974;2023-02-20T05:02:51;102103.63;;;5.37;100.00
59757;BME280;45631;51.962;5.974;2023-02-20T05:05:21;102104.34;;;5.42;100.00
59757;BME280;45631;51.962;5.974;2023-02-20T05:07:53;102086.13;;;5.41;100.00
59757;BME280;45631;51.962;5.974;2023-02-20T05:10:22;102091.09;;;5.52;100.00
59757;BME280;45631;51.962;5.974;2023-02-20T05:12:52;102097.06;;;5.57;100.00
59757;BME280;45631;51.962;5.974;2023-02-20T05:15:22;102098.88;;;5.53;100.00
59757;BME280;45631;51.962;5.974;2023-02-20T05:17:50;102091.00;;;5.56;100.00
59757;BME280;45631;51.962;5.974;2023-02-20T05:20:19;102091.00;;;5.56;100.00
59757;BME280;45631;51.962;5.974;2023-02-20T05:23:07;102091.69;;;5.63;100.00
59757;BME280;45631;51.962;5.974;2023-02-20T05:25:35;102095.13;;;5.65;100.00
59757;BME280;45631;51.962;5.974;2023-02-20T05:28:04;102094.28;;;5.65;100.00
59757;BME280;45631;51.962;5.974;2023-02-20T05:30:32;102099.31;;;5.71;100.00
59757;BME280;45631;51.962;5.974;2023-02-20T05:33:01;102101.16;;;5.67;100.00
59757;BME280;45631;51.962;5.974;2023-02-20T05:35:29;102100.28;;;5.67;100.00
59757;BME280;45631;51.962;5.974;2023-02-20T05:37:57;102098.34;;;5.75;100.00
59757;BME280;45631;51.962;5.974;2023-02-20T05:40:25;102091.41;;;5.75;100.00
59757;BME280;45631;51.962;5.974;2023-02-20T05:42:53;102085.16;;;5.81;100.00
59757;BME280;45631;51.962;5.974;2023-02-20T05:45:23;102083.53;;;5.77;100.00
59757;BME280;45631;51.962;5.974;2023-02-20T05:47:51;102090.47;;;5.78;100.00
59757;BME280;45631;51.962;5.974;2023-02-20T05:50:19;102079.09;;;5.79;100.00
59757;BME280;45631;51.962;5.974;2023-02-20T05:52:47;102070.34;;;5.82;100.00
59757;BME280;45631;51.962;5.974;2023-02-20T05:55:15;102070.25;;;5.85;100.00
59757;BME280;45631;51.962;5.974;2023-02-20T05:57:43;102071.13;;;5.85;100.00
59757;BME280;45631;51.962;5.974;2023-02-20T06:00:12;102064.09;;;5.87;100.00
59757;BME280;45631;51.962;5.974;2023-02-20T06:02:41;102065.94;;;5.84;100.00
59757;BME280;45631;51.962;5.974;2023-02-20T06:05:10;102069.41;;;5.84;100.00
59757;BME280;45631;51.962;5.974;2023-02-20T06:07:38;102060.50;;;5.91;100.00
59757;BME280;45631;51.962;5.974;2023-02-20T06:10:06;102074.31;;;5.97;100.00
59757;BME280;45631;51.962;5.974;2023-02-20T06:12:34;102074.31;;;5.97;100.00
59757;BME280;45631;51.962;5.974;2023-02-20T06:15:03;102083.00;;;5.99;100.00
59757;BME280;45631;51.962;5.974;2023-02-20T06:17:31;102078.53;;;6.02;100.00
59757;BME280;45631;51.962;5.974;2023-02-20T06:20:01;102083.81;;;6.01;100.00
59757;BME280;45631;51.962;5.974;2023-02-20T06:22:29;102084.75;;;5.98;100.00
59757;BME280;45631;51.962;5.974;2023-02-20T06:24:57;102091.50;;;6.07;100.00
59757;BME280;45631;51.962;5.974;2023-02-20T06:27:25;102086.31;;;6.04;100.00
59757;BME280;45631;51.962;5.974;2023-02-20T06:29:53;102084.63;;;6.03;100.00
59757;BME280;45631;51.962;5.974;2023-02-20T06:32:21;102075.88;;;6.04;100.00
59757;BME280;45631;51.962;5.974;2023-02-20T06:34:49;102082.75;;;6.08;100.00
59757;BME280;45631;51.962;5.974;2023-02-20T06:37:19;102081.88;;;6.07;100.00
59757;BME280;45631;51.962;5.974;2023-02-20T06:39:47;102078.31;;;6.12;100.00
59757;BME280;45631;51.962;5.974;2023-02-20T06:42:15;102079.97;;;6.14;100.00
59757;BME280;45631;51.962;5.974;2023-02-20T06:44:43;102073.63;;;6.24;100.00
59757;BME280;45631;51.962;5.974;2023-02-20T06:47:11;102079.00;;;6.18;100.00
59757;BME280;45631;51.962;5.974;2023-02-20T06:49:40;102085.91;;;6.21;100.00
59757;BME280;45631;51.962;5.974;2023-02-20T06:52:09;102086.78;;;6.20;100.00
59757;BME280;45631;51.962;5.974;2023-02-20T06:54:40;102092.00;;;6.20;100.00
59757;BME280;45631;51.962;5.974;2023-02-20T06:57:08;102090.97;;;6.25;100.00
59757;BME280;45631;51.962;5.974;2023-02-20T06:59:37;102086.69;;;6.23;100.00
59757;BME280;45631;51.962;5.974;2023-02-20T07:02:09;102077.97;;;6.24;100.00
59757;BME280;45631;51.962;5.974;2023-02-20T07:04:40;102078.63;;;6.32;100.00
59757;BME280;45631;51.962;5.974;2023-02-20T07:07:08;102078.84;;;6.24;100.00
59757;BME280;45631;51.962;5.974;2023-02-20T07:09:39;102080.44;;;6.30;100.00
59757;BME280;45631;51.962;5.974;2023-02-20T07:12:11;102078.72;;;6.29;100.00
59757;BME280;45631;51.962;5.974;2023-02-20T07:14:39;102089.94;;;6.33;100.00
59757;BME280;45631;51.962;5.974;2023-02-20T07:17:10;102087.44;;;6.28;100.00
59757;BME280;45631;51.962;5.974;2023-02-20T07:19:39;102082.09;;;6.33;100.00
59757;BME280;45631;51.962;5.974;2023-02-20T07:22:07;102090.63;;;6.39;100.00
59757;BME280;45631;51.962;5.974;2023-02-20T07:24:35;102089.91;;;6.34;100.00
59757;BME280;45631;51.962;5.974;2023-02-20T07:27:03;102091.59;;;6.35;100.00
59757;BME280;45631;51.962;5.974;2023-02-20T07:29:34;102094.97;;;6.39;100.00
59757;BME280;45631;51.962;5.974;2023-02-20T07:32:02;102097.50;;;6.42;100.00
59757;BME280;45631;51.962;5.974;2023-02-20T07:34:30;102094.81;;;6.45;100.00
59757;BME280;45631;51.962;5.974;2023-02-20T07:37:01;102105.22;;;6.47;100.00
59757;BME280;45631;51.962;5.974;2023-02-20T07:39:29;102092.13;;;6.48;100.00
59757;BME280;45631;51.962;5.974;2023-02-20T07:41:57;102083.44;;;6.46;100.00
59757;BME280;45631;51.962;5.974;2023-02-20T07:44:25;102080.81;;;6.48;100.00
59757;BME280;45631;51.962;5.974;2023-02-20T07:46:55;102080.81;;;6.48;100.00
59757;BME280;45631;51.962;5.974;2023-02-20T07:49:23;102092.91;;;6.50;100.00
59757;BME280;45631;51.962;5.974;2023-02-20T07:51:51;102095.31;;;6.58;100.00
59757;BME280;45631;51.962;5.974;2023-02-20T07:54:19;102092.91;;;6.52;100.00
59757;BME280;45631;51.962;5.974;2023-02-20T07:56:48;102099.78;;;6.54;100.00
59757;BME280;45631;51.962;5.974;2023-02-20T07:59:16;102103.06;;;6.61;100.00
59757;BME280;45631;51.962;5.974;2023-02-20T08:01:44;102105.81;;;6.56;100.00
59757;BME280;45631;51.962;5.974;2023-02-20T08:04:13;102103.16;;;6.58;100.00
59757;BME280;45631;51.962;5.974;2023-02-20T08:06:42;102097.00;;;6.60;100.00
59757;BME280;45631;51.962;5.974;2023-02-20T08:09:10;102099.53;;;6.64;100.00
59757;BME280;45631;51.962;5.974;2023-02-20T08:11:38;102102.22;;;6.60;100.00
59757;BME280;45631;51.962;5.974;2023-02-20T08:14:07;102101.28;;;6.63;100.00
59757;BME280;45631;51.962;5.974;2023-02-20T08:16:35;102102.22;;;6.60;100.00
59757;BME280;45631;51.962;5.974;2023-02-20T08:19:03;102097.81;;;6.63;100.00
59757;BME280;45631;51.962;5.974;2023-02-20T08:21:32;102095.97;;;6.66;100.00
59757;BME280;45631;51.962;5.974;2023-02-20T08:24:00;102104.63;;;6.68;100.00
59757;BME280;45631;51.962;5.974;2023-02-20T08:26:29;102103.75;;;6.68;100.00
59757;BME280;45631;51.962;5.974;2023-02-20T08:28:57;102092.34;;;6.70;100.00
59757;BME280;45631;51.962;5.974;2023-02-20T08:31:25;102107.94;;;6.75;100.00
59757;BME280;45631;51.962;5.974;2023-02-20T08:34:01;102109.72;;;6.73;100.00
59757;BME280;45631;51.962;5.974;2023-02-20T08:36:29;102111.34;;;6.77;100.00
59757;BME280;45631;51.962;5.974;2023-02-20T08:38:59;102099.88;;;6.81;100.00
59757;BME280;45631;51.962;5.974;2023-02-20T08:41:29;102101.59;;;6.82;100.00
59757;BME280;45631;51.962;5.974;2023-02-20T08:43:57;102100.78;;;6.80;100.00
59757;BME280;45631;51.962;5.974;2023-02-20T08:46:25;102092.66;;;6.89;100.00
59757;BME280;45631;51.962;5.974;2023-02-20T08:48:53;102095.38;;;6.86;100.00
59757;BME280;45631;51.962;5.974;2023-02-20T08:51:21;102091.94;;;6.84;100.00
59757;BME280;45631;51.962;5.974;2023-02-20T08:53:51;102092.66;;;6.89;100.00
59757;BME280;45631;51.962;5.974;2023-02-20T08:56:21;102096.00;;;6.94;100.00
59757;BME280;45631;51.962;5.974;2023-02-20T08:58:49;102075.88;;;6.97;100.00
59757;BME280;45631;51.962;5.974;2023-02-20T09:01:17;102086.41;;;6.95;100.00
59757;BME280;45631;51.962;5.974;2023-02-20T09:03:45;102087.91;;;7.04;100.00
59757;BME280;45631;51.962;5.974;2023-02-20T09:06:15;102086.22;;;7.01;100.00
59757;BME280;45631;51.962;5.974;2023-02-20T09:08:43;102074.03;;;7.00;100.00
59757;BME280;45631;51.962;5.974;2023-02-20T09:11:11;102079.22;;;7.02;100.00
59757;BME280;45631;51.962;5.974;2023-02-20T09:13:44;102082.50;;;7.08;100.00
59757;BME280;45631;51.962;5.974;2023-02-20T09:16:14;102071.19;;;7.08;100.00
59757;BME280;45631;51.962;5.974;2023-02-20T09:18:43;102080.63;;;7.14;100.00
59757;BME280;45631;51.962;5.974;2023-02-20T09:21:13;102070.81;;;7.20;100.00
59757;BME280;45631;51.962;5.974;2023-02-20T09:23:42;102071.63;;;7.22;100.00
59757;BME280;45631;51.962;5.974;2023-02-20T09:26:13;102053.34;;;7.21;100.00
59757;BME280;45631;51.962;5.974;2023-02-20T09:28:41;102051.41;;;7.27;100.00
59757;BME280;45631;51.962;5.974;2023-02-20T09:31:13;102047.88;;;7.28;100.00
59757;BME280;45631;51.962;5.974;2023-02-20T09:33:43;102033.78;;;7.33;100.00
59757;BME280;45631;51.962;5.974;2023-02-20T09:36:17;102043.97;;;7.42;100.00
59757;BME280;45631;51.962;5.974;2023-02-20T09:38:45;102035.19;;;7.43;100.00
59757;BME280;45631;51.962;5.974;2023-02-20T09:41:40;102033.56;;;7.40;100.00
59757;BME280;45631;51.962;5.974;2023-02-20T09:44:14;102042.25;;;7.41;100.00
59757;BME280;45631;51.962;5.974;2023-02-20T09:46:47;102041.25;;;7.45;100.00
59757;BME280;45631;51.962;5.974;2023-02-20T09:49:23;102048.13;;;7.48;100.00
59757;BME280;45631;51.962;5.974;2023-02-20T09:51:56;102055.78;;;7.54;100.00
59757;BME280;45631;51.962;5.974;2023-02-20T09:54:30;102048.78;;;7.54;100.00
59757;BME280;45631;51.962;5.974;2023-02-20T09:57:01;102061.66;;;7.60;100.00
59757;BME280;45631;51.962;5.974;2023-02-20T09:59:32;102055.63;;;7.58;100.00
59757;BME280;45631;51.962;5.974;2023-02-20T10:02:13;102052.41;;;7.50;100.00
59757;BME280;45631;51.962;5.974;2023-02-20T10:04:45;102049.69;;;7.53;100.00
59757;BME280;45631;51.962;5.974;2023-02-20T10:07:28;102043.69;;;7.50;100.00
59757;BME280;45631;51.962;5.974;2023-02-20T10:09:58;102045.47;;;7.49;100.00
59757;BME280;45631;51.962;5.974;2023-02-20T10:12:30;102052.41;;;7.50;100.00
59757;BME280;45631;51.962;5.974;2023-02-20T10:15:09;102046.88;;;7.59;100.00
59757;BME280;45631;51.962;5.974;2023-02-20T10:17:47;102065.22;;;7.59;100.00
59757;BME280;45631;51.962;5.974;2023-02-20T10:20:23;102058.44;;;7.52;100.00
59757;BME280;45631;51.962;5.974;2023-02-20T10:22:58;102067.06;;;7.56;100.00
59757;BME280;45631;51.962;5.974;2023-02-20T10:25:30;102060.06;;;7.56;100.00
59757;BME280;45631;51.962;5.974;2023-02-20T10:28:03;102071.47;;;7.55;100.00
59757;BME280;45631;51.962;5.974;2023-02-20T10:30:35;102067.06;;;7.56;100.00
59757;BME280;45631;51.962;5.974;2023-02-20T10:33:17;102066.22;;;7.55;100.00
59757;BME280;45631;51.962;5.974;2023-02-20T10:35:53;102063.44;;;7.60;100.00
59757;BME280;45631;51.962;5.974;2023-02-20T10:38:28;102066.81;;;7.64;100.00
59757;BME280;45631;51.962;5.974;2023-02-20T10:41:04;102077.25;;;7.65;100.00
59757;BME280;45631;51.962;5.974;2023-02-20T10:43:41;102077.38;;;7.60;100.00
59757;BME280;45631;51.962;5.974;2023-02-20T10:46:16;102081.72;;;7.61;100.00
59757;BME280;45631;51.962;5.974;2023-02-20T10:48:49;102082.53;;;7.64;100.00
59757;BME280;45631;51.962;5.974;2023-02-20T10:51:21;102092.91;;;7.67;100.00
59757;BME280;45631;51.962;5.974;2023-02-20T10:53:57;102096.47;;;7.64;100.00
59757;BME280;45631;51.962;5.974;2023-02-20T10:56:36;102086.75;;;7.68;100.00
59757;BME280;45631;51.962;5.974;2023-02-20T10:59:08;102092.03;;;7.66;100.00
59757;BME280;45631;51.962;5.974;2023-02-20T11:01:38;102092.00;;;7.68;100.00
59757;BME280;45631;51.962;5.974;2023-02-20T11:04:11;102067.41;;;7.72;100.00
59757;BME280;45631;51.962;5.974;2023-02-20T11:06:44;102069.09;;;7.74;100.00
59757;BME280;45631;51.962;5.974;2023-02-20T11:09:12;102101.53;;;7.70;100.00
59757;BME280;45631;51.962;5.974;2023-02-20T11:11:42;102088.44;;;7.69;100.00
59757;BME280;45631;51.962;5.974;2023-02-20T11:14:13;102057.69;;;7.75;100.00
59757;BME280;45631;51.962;5.974;2023-02-20T11:16:46;102039.41;;;7.74;100.00
59757;BME280;45631;51.962;5.974;2023-02-20T11:19:22;102051.53;;;7.76;100.00
59757;BME280;45631;51.962;5.974;2023-02-20T11:21:56;102064.56;;;7.78;100.00
59757;BME280;45631;51.962;5.974;2023-02-20T11:24:29;102052.38;;;7.77;100.00
59757;BME280;45631;51.962;5.974;2023-02-20T11:27:04;102023.53;;;7.78;100.00
59757;BME280;45631;51.962;5.974;2023-02-20T11:29:40;102026.84;;;7.84;100.00
59757;BME280;45631;51.962;5.974;2023-02-20T11:32:28;102019.75;;;7.87;100.00
59757;BME280;45631;51.962;5.974;2023-02-20T11:35:23;102011.06;;;7.85;100.00
59757;BME280;45631;51.962;5.974;2023-02-20T11:38:32;102016.16;;;7.90;100.00
59757;BME280;45631;51.962;5.974;2023-02-20T11:41:23;102017.00;;;7.90;100.00
59757;BME280;45631;51.962;5.974;2023-02-20T11:44:17;102014.31;;;7.92;100.00
59757;BME280;45631;51.962;5.974;2023-02-20T11:46:46;101997.50;;;7.99;100.00
59757;BME280;45631;51.962;5.974;2023-02-20T11:49:24;101983.66;;;7.95;100.00
59757;BME280;45631;51.962;5.974;2023-02-20T11:52:06;101983.72;;;7.94;100.00
59757;BME280;45631;51.962;5.974;2023-02-20T11:54:34;101999.94;;;8.04;100.00
59757;BME280;45631;51.962;5.974;2023-02-20T11:57:04;102023.53;;;8.04;100.00
59757;BME280;45631;51.962;5.974;2023-02-20T11:59:36;102017.44;;;8.03;100.00
59757;BME280;45631;51.962;5.974;2023-02-20T12:02:17;102012.16;;;8.05;100.00
59757;BME280;45631;51.962;5.974;2023-02-20T12:05:08;102000.69;;;8.07;100.00
59757;BME280;45631;51.962;5.974;2023-02-20T12:07:40;102004.16;;;8.08;100.00
59757;BME280;45631;51.962;5.974;2023-02-20T12:10:22;102008.31;;;8.13;100.00
59757;BME280;45631;51.962;5.974;2023-02-20T12:12:52;102011.91;;;8.11;100.00
59757;BME280;45631;51.962;5.974;2023-02-20T12:15:23;102007.53;;;8.11;100.00
59757;BME280;45631;51.962;5.974;2023-02-20T12:20:48;102009.13;;;8.16;100.00
59757;BME280;45631;51.962;5.974;2023-02-20T12:23:26;102012.66;;;8.15;100.00
59757;BME280;45631;51.962;5.974;2023-02-20T12:26:11;102034.47;;;8.15;100.00
59757;BME280;45631;51.962;5.974;2023-02-20T12:28:47;102037.72;;;8.22;100.00
59757;BME280;45631;51.962;5.974;2023-02-20T12:31:25;102029.97;;;8.19;100.00
59757;BME280;45631;51.962;5.974;2023-02-20T12:34:13;102020.41;;;8.18;100.00
59757;BME280;45631;51.962;5.974;2023-02-20T12:36:45;102023.03;;;8.18;100.00
59757;BME280;45631;51.962;5.974;2023-02-20T12:39:24;102021.34;;;8.17;100.00
59757;BME280;45631;51.962;5.974;2023-02-20T12:42:06;102015.09;;;8.19;100.00
59757;BME280;45631;51.962;5.974;2023-02-20T12:44:49;102015.84;;;8.23;100.00
59757;BME280;45631;51.962;5.974;2023-02-20T12:47:28;102020.97;;;8.26;100.00
59757;BME280;45631;51.962;5.974;2023-02-20T12:50:13;102020.00;;;8.28;100.00
59757;BME280;45631;51.962;5.974;2023-02-20T12:53:05;102014.00;;;8.26;100.00
59757;BME280;45631;51.962;5.974;2023-02-20T12:55:44;102016.59;;;8.26;100.00
59757;BME280;45631;51.962;5.974;2023-02-20T12:58:24;102011.47;;;8.23;100.00
59757;BME280;45631;51.962;5.974;2023-02-20T13:00:58;101986.84;;;8.27;100.00
59757;BME280;45631;51.962;5.974;2023-02-20T13:03:37;101986.69;;;8.32;100.00
59757;BME280;45631;51.962;5.974;2023-02-20T13:06:07;101992.56;;;8.39;100.00
59757;BME280;45631;51.962;5.974;2023-02-20T13:08:39;102003.16;;;8.36;100.00
59757;BME280;45631;51.962;5.974;2023-02-20T13:11:14;101997.06;;;8.35;100.00
59757;BME280;45631;51.962;5.974;2023-02-20T13:13:51;101998.84;;;8.35;100.00
59757;BME280;45631;51.962;5.974;2023-02-20T13:16:26;101989.88;;;8.40;100.00
59757;BME280;45631;51.962;5.974;2023-02-20T13:19:05;101978.56;;;8.38;100.00
59757;BME280;45631;51.962;5.974;2023-02-20T13:21:40;101977.81;;;8.36;100.00
59757;BME280;45631;51.962;5.974;2023-02-20T13:24:28;101994.97;;;8.45;100.00
59757;BME280;45631;51.962;5.974;2023-02-20T13:27:00;101981.84;;;8.45;100.00